Search for airport 
image banner adimage banner adimage banner ad
image banner ad

CL19 - Bank Of America Glendale

Located in Glendale, United States

ICAO - CL19, IATA -

Data provided by Airmate  

General information

Coordinates: N34°9'19" W118°15'25"
Elevation is 560 feet MSL.
Magnetic variation is 14° East
View others Airports in California

Operational data

Special qualification required
Current time UTC:
Current local time:
Weather at : KBUR - Bob Hope ( 11 km )
METAR: KBUR 240753Z 11007KT 10SM CLR 17/13 A3000 RMK AO2 SLP147 T01720133 403060167 $
TAF: KBUR 240544Z 2406/2506 VRB03KT P6SM SKC FM242000 18010KT P6SM SKC FM250400 14007KT P6SM SKC
View NOTAMs / SUP AIP / TFR affecting this airport [VIEW]
Communications frequencies: [VIEW]

Runways:

Airport contact information

Address: Glendale United States

Satellite view of CL19